sensor_id;sensor_type;location;lat;lon;timestamp;temperature;humidity
75113;DHT22;63692;47.338;8.520;2023-11-21T06:29:45;8.30;99.90
75113;DHT22;63692;47.338;8.520;2023-11-21T06:32:11;8.30;99.90
75113;DHT22;63692;47.338;8.520;2023-11-21T08:25:19;8.80;99.90
75113;DHT22;63692;47.338;8.520;2023-11-21T08:27:46;8.80;99.90
75113;DHT22;63692;47.338;8.520;2023-11-21T08:30:12;8.70;99.90
75113;DHT22;63692;47.338;8.520;2023-11-21T08:32:42;8.80;99.90
75113;DHT22;63692;47.338;8.520;2023-11-21T08:35:08;8.80;99.90
75113;DHT22;63692;47.338;8.520;2023-11-21T08:37:33;8.80;99.90
75113;DHT22;63692;47.338;8.520;2023-11-21T08:40:03;8.80;99.90
75113;DHT22;63692;47.338;8.520;2023-11-21T08:42:29;8.70;99.90
75113;DHT22;63692;47.338;8.520;2023-11-21T08:44:55;8.70;99.90
75113;DHT22;63692;47.338;8.520;2023-11-21T08:47:23;8.70;99.90
75113;DHT22;63692;47.338;8.520;2023-11-21T08:49:50;8.70;99.90
75113;DHT22;63692;47.338;8.520;2023-11-21T08:52:18;8.70;99.90
75113;DHT22;63692;47.338;8.520;2023-11-21T08:54:44;8.70;99.90
75113;DHT22;63692;47.338;8.520;2023-11-21T08:57:10;8.70;99.90
75113;DHT22;63692;47.338;8.520;2023-11-21T08:59:36;8.80;99.90
75113;DHT22;63692;47.338;8.520;2023-11-21T09:02:02;8.80;99.90
75113;DHT22;63692;47.338;8.520;2023-11-21T09:04:27;8.70;99.90
75113;DHT22;63692;47.338;8.520;2023-11-21T09:06:53;8.70;99.90
75113;DHT22;63692;47.338;8.520;2023-11-21T09:09:18;8.70;99.90
75113;DHT22;63692;47.338;8.520;2023-11-21T09:11:45;8.80;99.90
75113;DHT22;63692;47.338;8.520;2023-11-21T09:14:11;8.70;99.90
75113;DHT22;63692;47.338;8.520;2023-11-21T09:16:39;8.70;99.90
75113;DHT22;63692;47.338;8.520;2023-11-21T09:19:04;8.60;99.90
75113;DHT22;63692;47.338;8.520;2023-11-21T09:21:30;8.60;99.90
75113;DHT22;63692;47.338;8.520;2023-11-21T09:23:56;8.50;99.90
75113;DHT22;63692;47.338;8.520;2023-11-21T09:26:21;8.50;99.90
75113;DHT22;63692;47.338;8.520;2023-11-21T09:28:47;8.50;99.90
75113;DHT22;63692;47.338;8.520;2023-11-21T09:31:13;8.50;99.90
75113;DHT22;63692;47.338;8.520;2023-11-21T09:33:41;8.50;99.90
75113;DHT22;63692;47.338;8.520;2023-11-21T09:36:12;8.50;99.90
75113;DHT22;63692;47.338;8.520;2023-11-21T09:38:38;8.50;99.90
75113;DHT22;63692;47.338;8.520;2023-11-21T09:41:08;8.50;99.90
75113;DHT22;63692;47.338;8.520;2023-11-21T09:43:38;8.50;99.90
75113;DHT22;63692;47.338;8.520;2023-11-21T09:46:06;8.50;99.90
75113;DHT22;63692;47.338;8.520;2023-11-21T09:48:36;8.50;99.90
75113;DHT22;63692;47.338;8.520;2023-11-21T09:51:02;8.50;99.90
75113;DHT22;63692;47.338;8.520;2023-11-21T09:53:31;8.50;99.90
75113;DHT22;63692;47.338;8.520;2023-11-21T09:55:57;8.50;99.90
75113;DHT22;63692;47.338;8.520;2023-11-21T09:58:22;8.50;99.90
75113;DHT22;63692;47.338;8.520;2023-11-21T10:00:57;8.50;99.90
75113;DHT22;63692;47.338;8.520;2023-11-21T10:03:25;8.50;99.90
75113;DHT22;63692;47.338;8.520;2023-11-21T10:05:50;8.60;99.90
75113;DHT22;63692;47.338;8.520;2023-11-21T10:08:19;8.60;99.90
75113;DHT22;63692;47.338;8.520;2023-11-21T10:10:49;8.50;99.90
75113;DHT22;63692;47.338;8.520;2023-11-21T10:13:18;8.50;99.90
75113;DHT22;63692;47.338;8.520;2023-11-21T10:15:49;8.60;99.90
75113;DHT22;63692;47.338;8.520;2023-11-21T10:18:16;8.60;99.90
75113;DHT22;63692;47.338;8.520;2023-11-21T10:20:41;8.70;99.90
75113;DHT22;63692;47.338;8.520;2023-11-21T10:23:09;8.70;99.90
75113;DHT22;63692;47.338;8.520;2023-11-21T10:25:37;8.70;99.90
75113;DHT22;63692;47.338;8.520;2023-11-21T10:28:03;8.70;99.90
75113;DHT22;63692;47.338;8.520;2023-11-21T10:30:36;8.70;99.90
75113;DHT22;63692;47.338;8.520;2023-11-21T10:33:07;8.80;99.90
75113;DHT22;63692;47.338;8.520;2023-11-21T10:35:49;8.80;99.90
75113;DHT22;63692;47.338;8.520;2023-11-21T10:38:20;8.80;99.90
75113;DHT22;63692;47.338;8.520;2023-11-21T10:40:50;8.90;99.90
75113;DHT22;63692;47.338;8.520;2023-11-21T10:43:16;8.90;99.90
75113;DHT22;63692;47.338;8.520;2023-11-21T10:45:42;8.90;99.90
75113;DHT22;63692;47.338;8.520;2023-11-21T10:48:10;8.90;99.90
75113;DHT22;63692;47.338;8.520;2023-11-21T10:50:37;8.90;99.90
75113;DHT22;63692;47.338;8.520;2023-11-21T10:53:04;8.90;99.90
75113;DHT22;63692;47.338;8.520;2023-11-21T11:15:16;8.90;99.90
75113;DHT22;63692;47.338;8.520;2023-11-21T11:17:42;8.80;99.90
75113;DHT22;63692;47.338;8.520;2023-11-21T11:20:12;8.80;99.90
75113;DHT22;63692;47.338;8.520;2023-11-21T11:22:48;8.80;99.90
75113;DHT22;63692;47.338;8.520;2023-11-21T11:28:14;8.90;99.90
75113;DHT22;63692;47.338;8.520;2023-11-21T11:38:46;9.10;99.90
75113;DHT22;63692;47.338;8.520;2023-11-21T11:41:12;9.20;99.90
75113;DHT22;63692;47.338;8.520;2023-11-21T11:43:38;9.20;99.90
75113;DHT22;63692;47.338;8.520;2023-11-21T11:46:10;9.30;99.90
75113;DHT22;63692;47.338;8.520;2023-11-21T11:48:39;9.20;99.90
75113;DHT22;63692;47.338;8.520;2023-11-21T11:51:12;9.30;99.90
75113;DHT22;63692;47.338;8.520;2023-11-21T11:53:41;9.30;99.90
75113;DHT22;63692;47.338;8.520;2023-11-21T11:56:25;9.30;99.90
75113;DHT22;63692;47.338;8.520;2023-11-21T11:58:53;9.30;99.90
75113;DHT22;63692;47.338;8.520;2023-11-21T12:01:19;9.30;99.90
75113;DHT22;63692;47.338;8.520;2023-11-21T12:06:16;9.30;99.90
75113;DHT22;63692;47.338;8.520;2023-11-21T12:08:51;9.30;99.90
75113;DHT22;63692;47.338;8.520;2023-11-21T12:11:17;9.40;99.90
75113;DHT22;63692;47.338;8.520;2023-11-21T12:13:43;9.30;99.90
75113;DHT22;63692;47.338;8.520;2023-11-21T12:16:10;9.30;99.90
75113;DHT22;63692;47.338;8.520;2023-11-21T12:18:36;9.30;99.90
75113;DHT22;63692;47.338;8.520;2023-11-21T12:21:03;9.40;99.90
75113;DHT22;63692;47.338;8.520;2023-11-21T12:23:29;9.40;99.90
75113;DHT22;63692;47.338;8.520;2023-11-21T12:25:55;9.50;99.90
75113;DHT22;63692;47.338;8.520;2023-11-21T12:28:21;9.50;99.90
75113;DHT22;63692;47.338;8.520;2023-11-21T12:30:48;9.50;99.90
75113;DHT22;63692;47.338;8.520;2023-11-21T12:33:14;9.60;99.90
75113;DHT22;63692;47.338;8.520;2023-11-21T12:35:43;9.60;99.90
75113;DHT22;63692;47.338;8.520;2023-11-21T12:38:09;9.70;99.90
75113;DHT22;63692;47.338;8.520;2023-11-21T12:40:35;9.80;99.90
75113;DHT22;63692;47.338;8.520;2023-11-21T12:43:01;9.90;99.90
75113;DHT22;63692;47.338;8.520;2023-11-21T12:45:29;9.90;99.90
75113;DHT22;63692;47.338;8.520;2023-11-21T12:47:59;9.90;99.90
75113;DHT22;63692;47.338;8.520;2023-11-21T12:50:30;9.80;99.90
75113;DHT22;63692;47.338;8.520;2023-11-21T12:53:01;9.80;99.90
75113;DHT22;63692;47.338;8.520;2023-11-21T12:55:32;9.80;99.90
75113;DHT22;63692;47.338;8.520;2023-11-21T12:58:01;9.80;99.90
75113;DHT22;63692;47.338;8.520;2023-11-21T13:00:57;9.80;99.90
75113;DHT22;63692;47.338;8.520;2023-11-21T13:03:25;9.80;99.90
75113;DHT22;63692;47.338;8.520;2023-11-21T13:05:51;9.80;99.90
75113;DHT22;63692;47.338;8.520;2023-11-21T13:08:20;9.70;99.90
75113;DHT22;63692;47.338;8.520;2023-11-21T13:10:50;9.80;99.90
75113;DHT22;63692;47.338;8.520;2023-11-21T13:13:15;9.80;99.90
75113;DHT22;63692;47.338;8.520;2023-11-21T13:18:14;9.90;99.90
75113;DHT22;63692;47.338;8.520;2023-11-21T13:20:41;9.80;99.90
75113;DHT22;63692;47.338;8.520;2023-11-21T13:23:09;9.80;99.90
75113;DHT22;63692;47.338;8.520;2023-11-21T13:25:38;9.80;99.90
75113;DHT22;63692;47.338;8.520;2023-11-21T13:28:04;9.80;99.90
75113;DHT22;63692;47.338;8.520;2023-11-21T13:30:30;9.80;99.90
75113;DHT22;63692;47.338;8.520;2023-11-21T13:33:00;9.80;99.90
75113;DHT22;63692;47.338;8.520;2023-11-21T13:35:33;9.80;99.90
75113;DHT22;63692;47.338;8.520;2023-11-21T13:38:08;9.80;99.90
75113;DHT22;63692;47.338;8.520;2023-11-21T13:40:35;9.90;99.90
75113;DHT22;63692;47.338;8.520;2023-11-21T13:43:12;9.90;99.90
75113;DHT22;63692;47.338;8.520;2023-11-21T13:45:38;10.00;99.90
75113;DHT22;63692;47.338;8.520;2023-11-21T13:48:08;9.90;99.90
75113;DHT22;63692;47.338;8.520;2023-11-21T13:50:45;9.80;99.90
75113;DHT22;63692;47.338;8.520;2023-11-21T13:53:21;9.90;99.90
75113;DHT22;63692;47.338;8.520;2023-11-21T13:55:53;9.90;99.90
75113;DHT22;63692;47.338;8.520;2023-11-21T13:58:25;9.80;99.90
75113;DHT22;63692;47.338;8.520;2023-11-21T14:01:10;9.70;99.90
75113;DHT22;63692;47.338;8.520;2023-11-21T14:03:54;9.70;99.90
75113;DHT22;63692;47.338;8.520;2023-11-21T14:06:26;9.70;99.90
75113;DHT22;63692;47.338;8.520;2023-11-21T14:09:01;9.70;99.90
75113;DHT22;63692;47.338;8.520;2023-11-21T14:11:31;9.70;99.90
75113;DHT22;63692;47.338;8.520;2023-11-21T14:13:57;9.70;99.90
75113;DHT22;63692;47.338;8.520;2023-11-21T14:16:24;9.70;99.90
75113;DHT22;63692;47.338;8.520;2023-11-21T14:18:50;9.70;99.90
75113;DHT22;63692;47.338;8.520;2023-11-21T14:21:26;9.70;99.90
75113;DHT22;63692;47.338;8.520;2023-11-21T14:23:52;9.80;99.90
75113;DHT22;63692;47.338;8.520;2023-11-21T14:26:20;9.80;99.90
75113;DHT22;63692;47.338;8.520;2023-11-21T14:28:46;9.80;99.90
75113;DHT22;63692;47.338;8.520;2023-11-21T14:31:14;9.70;99.90
75113;DHT22;63692;47.338;8.520;2023-11-21T14:33:43;9.70;99.90
75113;DHT22;63692;47.338;8.520;2023-11-21T14:36:09;9.70;99.90
75113;DHT22;63692;47.338;8.520;2023-11-21T14:38:36;9.70;99.90
75113;DHT22;63692;47.338;8.520;2023-11-21T14:41:09;9.70;99.90
75113;DHT22;63692;47.338;8.520;2023-11-21T14:43:40;9.70;99.90
75113;DHT22;63692;47.338;8.520;2023-11-21T14:46:06;9.70;99.90
75113;DHT22;63692;47.338;8.520;2023-11-21T14:48:35;9.70;99.90
75113;DHT22;63692;47.338;8.520;2023-11-21T14:51:13;9.60;99.90
75113;DHT22;63692;47.338;8.520;2023-11-21T14:54:01;9.60;99.90
75113;DHT22;63692;47.338;8.520;2023-11-21T14:56:32;9.50;99.90
75113;DHT22;63692;47.338;8.520;2023-11-21T14:59:01;9.50;99.90
75113;DHT22;63692;47.338;8.520;2023-11-21T15:01:37;9.40;99.90
75113;DHT22;63692;47.338;8.520;2023-11-21T15:04:21;9.40;99.90
75113;DHT22;63692;47.338;8.520;2023-11-21T15:07:02;9.40;99.90
75113;DHT22;63692;47.338;8.520;2023-11-21T15:09:28;9.30;99.90
75113;DHT22;63692;47.338;8.520;2023-11-21T15:11:57;9.30;99.90
75113;DHT22;63692;47.338;8.520;2023-11-21T15:14:29;9.20;99.90
75113;DHT22;63692;47.338;8.520;2023-11-21T15:16:58;9.20;99.90
75113;DHT22;63692;47.338;8.520;2023-11-21T15:19:26;9.30;99.90
75113;DHT22;63692;47.338;8.520;2023-11-21T15:21:52;9.30;99.90
75113;DHT22;63692;47.338;8.520;2023-11-21T15:24:17;9.30;99.90
75113;DHT22;63692;47.338;8.520;2023-11-21T15:26:43;9.30;99.90
75113;DHT22;63692;47.338;8.520;2023-11-21T15:29:08;9.20;99.90
75113;DHT22;63692;47.338;8.520;2023-11-21T15:31:34;9.30;99.90
75113;DHT22;63692;47.338;8.520;2023-11-21T15:34:01;9.30;99.90
75113;DHT22;63692;47.338;8.520;2023-11-21T15:36:27;9.30;99.90
75113;DHT22;63692;47.338;8.520;2023-11-21T15:38:53;9.30;99.90
75113;DHT22;63692;47.338;8.520;2023-11-21T15:41:19;9.20;99.90
75113;DHT22;63692;47.338;8.520;2023-11-21T15:43:45;9.20;99.90
75113;DHT22;63692;47.338;8.520;2023-11-21T15:46:14;9.10;99.90
75113;DHT22;63692;47.338;8.520;2023-11-21T15:48:39;9.10;99.90
75113;DHT22;63692;47.338;8.520;2023-11-21T15:51:09;9.10;99.90
75113;DHT22;63692;47.338;8.520;2023-11-21T15:53:38;9.00;99.90
75113;DHT22;63692;47.338;8.520;2023-11-21T15:56:07;9.00;99.90
75113;DHT22;63692;47.338;8.520;2023-11-21T15:58:37;9.00;99.90
75113;DHT22;63692;47.338;8.520;2023-11-21T16:01:02;9.00;99.90
75113;DHT22;63692;47.338;8.520;2023-11-21T16:03:28;9.00;99.90
75113;DHT22;63692;47.338;8.520;2023-11-21T16:05:58;9.00;99.90
75113;DHT22;63692;47.338;8.520;2023-11-21T16:08:23;9.10;99.90
75113;DHT22;63692;47.338;8.520;2023-11-21T16:10:49;9.10;99.90
75113;DHT22;63692;47.338;8.520;2023-11-21T16:13:15;9.10;99.90
75113;DHT22;63692;47.338;8.520;2023-11-21T16:15:42;9.10;99.90
75113;DHT22;63692;47.338;8.520;2023-11-21T16:18:08;9.00;99.90
75113;DHT22;63692;47.338;8.520;2023-11-21T16:20:33;9.00;99.90
75113;DHT22;63692;47.338;8.520;2023-11-21T16:22:59;9.00;99.90
75113;DHT22;63692;47.338;8.520;2023-11-21T16:25:24;8.90;99.90
75113;DHT22;63692;47.338;8.520;2023-11-21T16:27:50;8.90;99.90
75113;DHT22;63692;47.338;8.520;2023-11-21T16:30:16;8.90;99.90
75113;DHT22;63692;47.338;8.520;2023-11-21T16:32:47;8.80;99.90
75113;DHT22;63692;47.338;8.520;2023-11-21T16:35:12;8.80;99.90
75113;DHT22;63692;47.338;8.520;2023-11-21T16:37:39;8.80;99.90
75113;DHT22;63692;47.338;8.520;2023-11-21T16:40:05;8.80;99.90
75113;DHT22;63692;47.338;8.520;2023-11-21T16:42:34;8.70;99.90
75113;DHT22;63692;47.338;8.520;2023-11-21T16:45:00;8.70;99.90
75113;DHT22;63692;47.338;8.520;2023-11-21T16:47:25;8.70;99.90
75113;DHT22;63692;47.338;8.520;2023-11-21T16:49:51;8.70;99.90
75113;DHT22;63692;47.338;8.520;2023-11-21T16:52:17;8.70;99.90
75113;DHT22;63692;47.338;8.520;2023-11-21T16:54:47;8.70;99.90
75113;DHT22;63692;47.338;8.520;2023-11-21T16:57:14;8.70;99.90
75113;DHT22;63692;47.338;8.520;2023-11-21T16:59:40;8.70;99.90
75113;DHT22;63692;47.338;8.520;2023-11-21T17:02:07;8.70;99.90
75113;DHT22;63692;47.338;8.520;2023-11-21T17:04:34;8.70;99.90
75113;DHT22;63692;47.338;8.520;2023-11-21T17:07:02;8.70;99.90
75113;DHT22;63692;47.338;8.520;2023-11-21T17:09:28;8.80;99.90
75113;DHT22;63692;47.338;8.520;2023-11-21T17:11:54;8.80;99.90
75113;DHT22;63692;47.338;8.520;2023-11-21T17:14:21;8.80;99.90
75113;DHT22;63692;47.338;8.520;2023-11-21T17:16:47;8.80;99.90
75113;DHT22;63692;47.338;8.520;2023-11-21T17:19:14;8.80;99.90
75113;DHT22;63692;47.338;8.520;2023-11-21T17:21:40;8.80;99.90
75113;DHT22;63692;47.338;8.520;2023-11-21T17:26:34;8.90;99.90
75113;DHT22;63692;47.338;8.520;2023-11-21T17:29:00;8.80;99.90
75113;DHT22;63692;47.338;8.520;2023-11-21T17:31:27;8.80;99.90
75113;DHT22;63692;47.338;8.520;2023-11-21T17:33:52;8.80;99.90
75113;DHT22;63692;47.338;8.520;2023-11-21T17:36:20;8.80;99.90
75113;DHT22;63692;47.338;8.520;2023-11-21T17:38:45;8.70;99.90
75113;DHT22;63692;47.338;8.520;2023-11-21T17:41:11;8.60;99.90
75113;DHT22;63692;47.338;8.520;2023-11-21T17:43:40;8.60;99.90
75113;DHT22;63692;47.338;8.520;2023-11-21T17:46:09;8.60;99.90
75113;DHT22;63692;47.338;8.520;2023-11-21T17:48:34;8.60;99.90
75113;DHT22;63692;47.338;8.520;2023-11-21T17:51:02;8.60;99.90
75113;DHT22;63692;47.338;8.520;2023-11-21T17:53:28;8.60;99.90
75113;DHT22;63692;47.338;8.520;2023-11-21T17:55:54;8.60;99.90
75113;DHT22;63692;47.338;8.520;2023-11-21T17:58:20;8.60;99.90
75113;DHT22;63692;47.338;8.520;2023-11-21T18:00:45;8.60;99.90
75113;DHT22;63692;47.338;8.520;2023-11-21T18:03:11;8.60;99.90
75113;DHT22;63692;47.338;8.520;2023-11-21T18:05:37;8.70;99.90
75113;DHT22;63692;47.338;8.520;2023-11-21T18:08:03;8.70;99.90
75113;DHT22;63692;47.338;8.520;2023-11-21T18:10:30;8.70;99.90
75113;DHT22;63692;47.338;8.520;2023-11-21T18:12:57;8.70;99.90
75113;DHT22;63692;47.338;8.520;2023-11-21T18:15:23;8.60;99.90
75113;DHT22;63692;47.338;8.520;2023-11-21T18:17:48;8.50;99.90
75113;DHT22;63692;47.338;8.520;2023-11-21T18:20:14;8.40;99.90
75113;DHT22;63692;47.338;8.520;2023-11-21T18:22:40;8.40;99.90
75113;DHT22;63692;47.338;8.520;2023-11-21T18:25:06;8.40;99.90
75113;DHT22;63692;47.338;8.520;2023-11-21T18:27:31;8.50;99.90
75113;DHT22;63692;47.338;8.520;2023-11-21T18:29:57;8.50;99.90
75113;DHT22;63692;47.338;8.520;2023-11-21T18:32:26;8.50;99.90
75113;DHT22;63692;47.338;8.520;2023-11-21T18:34:52;8.50;99.90
75113;DHT22;63692;47.338;8.520;2023-11-21T18:37:19;8.50;99.90
75113;DHT22;63692;47.338;8.520;2023-11-21T18:39:45;8.50;99.90
75113;DHT22;63692;47.338;8.520;2023-11-21T18:42:11;8.60;99.90
75113;DHT22;63692;47.338;8.520;2023-11-21T18:44:44;8.60;99.90
75113;DHT22;63692;47.338;8.520;2023-11-21T18:47:09;8.70;99.90
75113;DHT22;63692;47.338;8.520;2023-11-21T18:49:42;8.70;99.90
75113;DHT22;63692;47.338;8.520;2023-11-21T18:52:09;8.60;99.90
75113;DHT22;63692;47.338;8.520;2023-11-21T18:54:36;8.60;99.90
75113;DHT22;63692;47.338;8.520;2023-11-21T18:57:02;8.60;99.90
75113;DHT22;63692;47.338;8.520;2023-11-21T18:59:28;8.50;99.90
75113;DHT22;63692;47.338;8.520;2023-11-21T19:01:54;8.60;99.90
75113;DHT22;63692;47.338;8.520;2023-11-21T19:04:20;8.50;99.90
75113;DHT22;63692;47.338;8.520;2023-11-21T19:09:23;8.50;99.90
75113;DHT22;63692;47.338;8.520;2023-11-21T19:11:48;8.40;99.90
75113;DHT22;63692;47.338;8.520;2023-11-21T19:14:14;8.40;99.90
75113;DHT22;63692;47.338;8.520;2023-11-21T19:16:39;8.40;99.90
75113;DHT22;63692;47.338;8.520;2023-11-21T19:19:05;8.50;99.90
75113;DHT22;63692;47.338;8.520;2023-11-21T19:21:33;8.50;99.90
75113;DHT22;63692;47.338;8.520;2023-11-21T19:23:58;8.60;99.90
75113;DHT22;63692;47.338;8.520;2023-11-21T19:26:24;8.60;99.90
75113;DHT22;63692;47.338;8.520;2023-11-21T19:28:49;8.50;99.90
75113;DHT22;63692;47.338;8.520;2023-11-21T19:31:20;8.40;99.90
75113;DHT22;63692;47.338;8.520;2023-11-21T19:33:47;8.40;99.90
75113;DHT22;63692;47.338;8.520;2023-11-21T19:36:18;8.40;99.90
75113;DHT22;63692;47.338;8.520;2023-11-21T19:38:44;8.40;99.90
75113;DHT22;63692;47.338;8.520;2023-11-21T19:41:18;8.40;99.90
75113;DHT22;63692;47.338;8.520;2023-11-21T19:43:44;8.40;99.90
75113;DHT22;63692;47.338;8.520;2023-11-21T19:46:10;8.40;99.90
75113;DHT22;63692;47.338;8.520;2023-11-21T19:48:36;8.50;99.90
75113;DHT22;63692;47.338;8.520;2023-11-21T19:51:02;8.50;99.90
75113;DHT22;63692;47.338;8.520;2023-11-21T19:53:34;8.40;99.90
75113;DHT22;63692;47.338;8.520;2023-11-21T19:56:06;8.40;99.90
75113;DHT22;63692;47.338;8.520;2023-11-21T19:58:34;8.40;99.90
75113;DHT22;63692;47.338;8.520;2023-11-21T20:01:00;8.40;99.90
75113;DHT22;63692;47.338;8.520;2023-11-21T20:03:26;8.40;99.90
75113;DHT22;63692;47.338;8.520;2023-11-21T20:05:53;8.40;99.90
75113;DHT22;63692;47.338;8.520;2023-11-21T20:08:19;8.50;99.90
75113;DHT22;63692;47.338;8.520;2023-11-21T20:10:44;8.50;99.90
75113;DHT22;63692;47.338;8.520;2023-11-21T20:13:12;8.50;99.90
75113;DHT22;63692;47.338;8.520;2023-11-21T20:15:38;8.50;99.90
75113;DHT22;63692;47.338;8.520;2023-11-21T20:18:05;8.50;99.90
75113;DHT22;63692;47.338;8.520;2023-11-21T20:20:31;8.50;99.90
75113;DHT22;63692;47.338;8.520;2023-11-21T20:22:56;8.50;99.90
75113;DHT22;63692;47.338;8.520;2023-11-21T20:25:22;8.50;99.90
75113;DHT22;63692;47.338;8.520;2023-11-21T20:27:48;8.50;99.90
75113;DHT22;63692;47.338;8.520;2023-11-21T20:30:14;8.60;99.90
75113;DHT22;63692;47.338;8.520;2023-11-21T20:32:40;8.50;99.90
75113;DHT22;63692;47.338;8.520;2023-11-21T20:35:06;8.60;99.90
75113;DHT22;63692;47.338;8.520;2023-11-21T20:37:32;8.50;99.90
75113;DHT22;63692;47.338;8.520;2023-11-21T20:39:59;8.50;99.90
75113;DHT22;63692;47.338;8.520;2023-11-21T20:42:26;8.50;99.90
75113;DHT22;63692;47.338;8.520;2023-11-21T20:44:54;8.50;99.90
75113;DHT22;63692;47.338;8.520;2023-11-21T20:47:20;8.60;99.90
75113;DHT22;63692;47.338;8.520;2023-11-21T20:49:45;8.60;99.90
75113;DHT22;63692;47.338;8.520;2023-11-21T20:52:11;8.60;99.90
75113;DHT22;63692;47.338;8.520;2023-11-21T20:54:37;8.60;99.90
75113;DHT22;63692;47.338;8.520;2023-11-21T20:57:02;8.60;99.90
75113;DHT22;63692;47.338;8.520;2023-11-21T20:59:28;8.60;99.90
